createdAt,value
2022-07-25T00:00:14.931Z,22.48
2022-07-25T00:05:17.466Z,22.45
2022-07-25T00:10:18.756Z,22.30
2022-07-25T00:15:20.100Z,22.28
2022-07-25T00:20:21.624Z,22.03
2022-07-25T00:25:22.939Z,22.06
2022-07-25T00:30:24.282Z,22.09
2022-07-25T00:35:25.562Z,22.04
2022-07-25T00:40:26.806Z,22.10
2022-07-25T00:45:28.100Z,22.05
2022-07-25T00:50:29.371Z,21.51
2022-07-25T00:55:30.645Z,21.47
2022-07-25T01:00:32.308Z,21.83
2022-07-25T01:05:33.593Z,21.75
2022-07-25T01:10:35.055Z,21.85
2022-07-25T01:15:36.354Z,21.81
2022-07-25T01:20:40.705Z,21.83
2022-07-25T01:25:42.027Z,21.63
2022-07-25T01:30:43.483Z,21.52
2022-07-25T01:35:44.787Z,21.57
2022-07-25T01:40:46.099Z,21.44
2022-07-25T01:45:47.426Z,21.54
2022-07-25T01:50:48.778Z,21.36
2022-07-25T01:55:50.323Z,21.42
2022-07-25T02:00:53.611Z,21.41
2022-07-25T02:05:54.962Z,21.01
2022-07-25T02:10:57.536Z,21.30
2022-07-25T02:15:58.867Z,21.43
2022-07-25T02:21:00.248Z,21.43
2022-07-25T02:26:01.516Z,21.40
2022-07-25T02:31:02.817Z,21.22
2022-07-25T02:36:04.178Z,21.04
2022-07-25T02:41:05.553Z,20.96
2022-07-25T02:46:06.933Z,20.94
2022-07-25T02:51:08.372Z,20.97
2022-07-25T02:56:09.670Z,21.62
2022-07-25T03:01:11.338Z,21.89
2022-07-25T03:06:12.709Z,22.02
2022-07-25T03:11:14.227Z,21.83
2022-07-25T03:16:15.533Z,21.69
2022-07-25T03:21:16.883Z,21.91
2022-07-25T03:26:18.128Z,21.30
2022-07-25T03:31:19.517Z,21.62
2022-07-25T03:36:20.825Z,21.64
2022-07-25T03:41:22.070Z,21.34
2022-07-25T03:46:23.345Z,21.31
2022-07-25T03:51:24.667Z,21.56
2022-07-25T03:56:25.936Z,21.23
2022-07-25T04:01:27.330Z,21.54
2022-07-25T04:06:28.667Z,21.54
2022-07-25T04:11:30.919Z,21.58
2022-07-25T04:16:32.304Z,21.54
2022-07-25T04:21:33.843Z,21.07
2022-07-25T04:26:35.155Z,21.46
2022-07-25T04:31:36.456Z,21.47
2022-07-25T04:36:37.823Z,20.92
2022-07-25T04:41:39.103Z,20.80
2022-07-25T04:46:40.368Z,21.21
2022-07-25T04:51:41.664Z,21.25
2022-07-25T05:01:44.367Z,21.02
2022-07-25T05:06:45.651Z,21.42
2022-07-25T05:11:49.483Z,21.71
2022-07-25T05:16:53.027Z,21.53
2022-07-25T05:21:54.397Z,21.07
2022-07-25T05:26:55.659Z,21.16
2022-07-25T05:31:56.949Z,21.20
2022-07-25T05:36:58.276Z,21.95
2022-07-25T05:41:59.536Z,22.21
2022-07-25T05:47:00.962Z,22.19
2022-07-25T05:52:02.279Z,21.56
2022-07-25T05:57:03.542Z,21.51
2022-07-25T06:02:04.975Z,21.57
2022-07-25T06:07:06.666Z,22.19
2022-07-25T06:12:09.809Z,22.80
2022-07-25T06:17:11.216Z,23.12
2022-07-25T06:22:13.770Z,23.33
2022-07-25T06:27:20.188Z,23.46
2022-07-25T06:32:22.461Z,23.63
2022-07-25T06:37:23.882Z,23.63
2022-07-25T06:42:25.327Z,23.74
2022-07-25T06:47:26.660Z,23.78
2022-07-25T06:52:27.956Z,24.10
2022-07-25T06:57:29.224Z,24.36
2022-07-25T07:02:30.528Z,24.77
2022-07-25T07:07:31.819Z,25.00
2022-07-25T07:12:33.109Z,25.07
2022-07-25T07:17:34.481Z,25.26
2022-07-25T07:22:35.760Z,25.50
2022-07-25T07:27:38.220Z,25.74
2022-07-25T07:32:39.548Z,25.49
2022-07-25T07:37:43.644Z,25.86
2022-07-25T07:42:45.337Z,26.13
2022-07-25T07:47:48.643Z,26.16
2022-07-25T07:52:49.942Z,26.31
2022-07-25T07:57:51.237Z,26.61
2022-07-25T08:02:52.728Z,26.76
2022-07-25T08:07:54.138Z,26.96
2022-07-25T08:12:55.461Z,27.17
2022-07-25T08:17:56.814Z,27.25
2022-07-25T08:22:58.132Z,27.46
2022-07-25T08:27:59.411Z,27.90
2022-07-25T08:33:00.888Z,27.87
2022-07-25T08:38:02.421Z,28.00
2022-07-25T08:43:04.412Z,28.38
2022-07-25T08:48:05.715Z,28.57
2022-07-25T08:53:33.190Z,28.56
2022-07-25T08:58:28.833Z,28.72
2022-07-25T09:03:30.184Z,28.68
2022-07-25T09:08:31.602Z,29.24
2022-07-25T09:13:38.507Z,29.29
2022-07-25T09:18:43.116Z,29.41
2022-07-25T09:23:44.399Z,29.73
2022-07-25T09:28:45.679Z,29.78
2022-07-25T09:33:47.999Z,30.22
2022-07-25T09:38:49.313Z,30.44
2022-07-25T09:43:50.677Z,30.13
2022-07-25T09:48:53.143Z,30.38
2022-07-25T09:53:54.765Z,30.25
2022-07-25T09:58:56.495Z,31.08
2022-07-25T10:03:57.866Z,31.07
2022-07-25T10:08:59.190Z,31.11
2022-07-25T10:14:00.538Z,31.73
2022-07-25T10:19:01.970Z,32.05
2022-07-25T10:24:03.667Z,31.97
2022-07-25T10:29:05.380Z,32.17
2022-07-25T10:34:07.152Z,32.48
2022-07-25T10:39:08.755Z,32.13
2022-07-25T10:44:11.193Z,32.60
2022-07-25T10:49:12.984Z,32.38
2022-07-25T10:54:14.850Z,32.70
2022-07-25T10:59:16.620Z,32.66
2022-07-25T11:04:18.104Z,32.68
2022-07-25T11:09:23.829Z,33.35
2022-07-25T11:14:28.075Z,33.69
2022-07-25T11:19:29.345Z,33.10
2022-07-25T11:24:30.615Z,33.52
2022-07-25T11:29:32.050Z,33.69
2022-07-25T11:34:33.726Z,34.07
2022-07-25T11:39:35.093Z,34.08
2022-07-25T11:44:36.369Z,34.73
2022-07-25T11:49:37.680Z,34.69
2022-07-25T11:54:38.931Z,35.00
2022-07-25T11:59:40.175Z,34.95
2022-07-25T12:04:41.474Z,35.18
2022-07-25T12:09:42.769Z,35.22
2022-07-25T12:14:44.018Z,35.23
2022-07-25T12:19:45.822Z,34.44
2022-07-25T12:24:47.080Z,35.55
2022-07-25T12:29:48.434Z,35.53
2022-07-25T12:34:49.673Z,35.66
2022-07-25T12:39:50.916Z,35.83
2022-07-25T12:44:52.191Z,36.14
2022-07-25T12:49:53.473Z,36.68
2022-07-25T12:54:54.730Z,36.45
2022-07-25T12:59:56.018Z,36.68
2022-07-25T13:04:57.277Z,36.73
2022-07-25T13:09:58.534Z,36.44
2022-07-25T13:15:00.070Z,36.80
2022-07-25T13:20:01.351Z,37.26
2022-07-25T13:25:02.650Z,37.50
2022-07-25T13:30:03.894Z,37.28
2022-07-25T13:35:05.339Z,37.62
2022-07-25T13:40:06.726Z,37.32
2022-07-25T13:45:08.000Z,37.41
2022-07-25T13:50:09.534Z,37.94
2022-07-25T13:55:11.550Z,37.58
2022-07-25T14:00:12.862Z,37.52
2022-07-25T14:05:14.132Z,37.53
2022-07-25T14:10:15.386Z,37.97
2022-07-25T14:15:17.529Z,38.38
2022-07-25T14:20:18.794Z,37.31
2022-07-25T14:25:20.048Z,37.16
2022-07-25T14:30:21.404Z,38.06
2022-07-25T14:35:22.756Z,38.36
2022-07-25T14:40:24.027Z,37.86
2022-07-25T14:45:25.295Z,37.77
2022-07-25T14:50:27.599Z,38.34
2022-07-25T14:55:28.884Z,37.60
2022-07-25T15:00:30.453Z,37.90
2022-07-25T15:05:31.863Z,38.25
2022-07-25T15:10:33.131Z,38.55
2022-07-25T15:15:34.464Z,38.45
2022-07-25T15:20:35.735Z,38.71
2022-07-25T15:30:58.396Z,36.87
2022-07-25T15:35:59.795Z,36.36
2022-07-25T15:41:01.236Z,36.11
2022-07-25T15:46:02.715Z,36.95
2022-07-25T15:51:04.007Z,38.14
2022-07-25T15:56:05.283Z,38.58
2022-07-25T16:01:06.829Z,39.05
2022-07-25T16:06:08.190Z,39.00
2022-07-25T16:11:09.530Z,39.03
2022-07-25T16:16:10.812Z,38.25
2022-07-25T16:21:12.330Z,37.23
2022-07-25T16:26:13.841Z,36.11
2022-07-25T16:31:15.223Z,34.99
2022-07-25T16:36:16.552Z,34.44
2022-07-25T16:41:17.886Z,34.35
2022-07-25T16:46:19.189Z,33.92
2022-07-25T16:51:20.493Z,33.68
2022-07-25T16:56:21.725Z,33.83
2022-07-25T17:01:24.822Z,34.09
2022-07-25T17:06:26.151Z,33.74
2022-07-25T17:11:27.492Z,33.06
2022-07-25T17:16:28.814Z,33.24
2022-07-25T17:21:30.140Z,33.26
2022-07-25T17:26:31.460Z,32.88
2022-07-25T17:31:32.818Z,31.86
2022-07-25T17:36:34.125Z,31.07
2022-07-25T17:41:35.404Z,29.80
2022-07-25T17:51:58.851Z,26.08
2022-07-25T17:57:00.157Z,26.04
2022-07-25T18:02:04.018Z,26.61
2022-07-25T18:07:05.470Z,27.18
2022-07-25T18:12:06.773Z,26.00
2022-07-25T18:17:08.200Z,26.67
2022-07-25T18:22:09.650Z,26.85
2022-07-25T18:27:10.977Z,26.90
2022-07-25T18:32:12.408Z,27.16
2022-07-25T18:37:13.901Z,27.59
2022-07-25T18:42:15.202Z,27.47
2022-07-25T18:47:16.472Z,27.75
2022-07-25T18:52:19.123Z,27.04
2022-07-25T18:57:23.876Z,27.10
2022-07-25T19:02:25.258Z,27.10
2022-07-25T19:07:26.744Z,26.47
2022-07-25T19:12:28.200Z,27.12
2022-07-25T19:17:29.556Z,26.82
2022-07-25T19:22:30.834Z,26.71
2022-07-25T19:27:32.155Z,26.34
2022-07-25T19:32:35.882Z,26.18
2022-07-25T19:37:37.135Z,26.29
2022-07-25T19:42:39.475Z,26.63
2022-07-25T19:47:40.748Z,26.55
2022-07-25T19:52:42.065Z,26.38
2022-07-25T19:57:43.898Z,26.31
2022-07-25T20:02:45.210Z,26.28
2022-07-25T20:07:46.580Z,26.16
2022-07-25T20:12:48.298Z,25.93
2022-07-25T20:17:49.743Z,25.77
2022-07-25T20:22:51.078Z,25.83
2022-07-25T20:27:52.441Z,25.56
2022-07-25T20:32:53.698Z,25.45
2022-07-25T20:37:54.956Z,25.12
2022-07-25T20:42:58.265Z,25.43
2022-07-25T20:48:00.762Z,24.73
2022-07-25T20:53:02.196Z,24.07
2022-07-25T20:58:03.508Z,24.52
2022-07-25T21:03:04.862Z,24.75
2022-07-25T21:08:11.028Z,24.57
2022-07-25T21:13:12.327Z,24.87
2022-07-25T21:18:17.331Z,25.13
2022-07-25T21:23:18.729Z,25.14
2022-07-25T21:28:20.022Z,25.15
2022-07-25T21:33:21.279Z,25.89
2022-07-25T21:38:26.681Z,26.18
2022-07-25T21:43:28.983Z,26.44
2022-07-25T21:48:49.083Z,26.62
2022-07-25T21:53:50.488Z,26.56
2022-07-25T21:58:51.824Z,25.90
2022-07-25T22:03:53.195Z,25.79
2022-07-25T22:08:54.560Z,25.30
2022-07-25T22:13:55.912Z,24.77
2022-07-25T22:18:57.303Z,24.61
2022-07-25T22:23:58.682Z,24.60
2022-07-25T22:28:59.950Z,24.68
2022-07-25T22:34:01.212Z,24.85
2022-07-25T22:39:02.468Z,25.13
2022-07-25T22:44:03.739Z,25.25
2022-07-25T22:49:05.397Z,25.28
2022-07-25T22:54:06.987Z,25.33
2022-07-25T22:59:08.879Z,25.17
2022-07-25T23:04:11.173Z,24.97
2022-07-25T23:09:13.572Z,25.03
2022-07-25T23:14:14.874Z,24.94
2022-07-25T23:19:16.256Z,24.79
2022-07-25T23:24:23.339Z,24.73
2022-07-25T23:29:24.718Z,24.56
2022-07-25T23:34:26.021Z,24.54
2022-07-25T23:39:27.311Z,24.57
2022-07-25T23:44:29.058Z,24.32
2022-07-25T23:49:30.862Z,24.38
2022-07-25T23:54:34.875Z,24.39
2022-07-25T23:59:36.212Z,24.07
